logo liguriameteo

Diretta Meteo Cannes, Franciavenerdì 14 giugno ore 17:00

Mappa
Sereno 25 °C Poco Nuvoloso 24 Ore: T.min 13 T.max 26
Ponente Sud/Sud-Ovest Km/h 22.2 Punto di rugiada: 17 °C Umidità: 61% Visibilità: 10 Km
Il sole sorge alle: 05:48 Il sole tramonta alle: 21:16
14 Giugno 2024 17:00 tempo osservato: Poco Nuvoloso Poco Nuvoloso 25 61 1016 vento: Nord S/SO 22.2
14 Giugno 2024 16:30 tempo osservato: Poco Nuvoloso Poco Nuvoloso 25 65 1016 vento: Nord S/SO 24
14 Giugno 2024 16:00 tempo osservato: Sereno Sereno 26 57 1016 vento: Nord SO 20.3
14 Giugno 2024 15:30 tempo osservato: Sereno Sereno 25 65 1016 vento: Nord S/SO 25.9
14 Giugno 2024 15:00 tempo osservato: Molto Nuvoloso Molto Nuvoloso 25 65 1016 vento: Nord S/SO 24
14 Giugno 2024 14:30 tempo osservato: Sereno Sereno 25 69 1016 vento: Nord S 29.6
14 Giugno 2024 14:00 tempo osservato: Sereno Sereno 24 73 1016 vento: Nord S 25.9
14 Giugno 2024 13:30 tempo osservato: Sereno Sereno 24 69 1016 vento: Nord S 25.9
14 Giugno 2024 13:00 tempo osservato: Molto Nuvoloso Molto Nuvoloso 24 69 1017 vento: Nord S 20.3
14 Giugno 2024 12:30 tempo osservato: Coperto Coperto 23 68 1017 vento: Nord S 24
14 Giugno 2024 12:00 tempo osservato: Sereno Sereno 23 68 1017 vento: Nord N 13
14 Giugno 2024 11:30 tempo osservato: Molto Nuvoloso Molto Nuvoloso 23 60 1017 vento: Nord S/SE 13
14 Giugno 2024 11:00 tempo osservato: Poco Nuvoloso Poco Nuvoloso 23 64 1017 vento: Nord S 11.1
14 Giugno 2024 10:30 tempo osservato: Molto Nuvoloso Molto Nuvoloso 22 64 1017 vento: Nord SO 13
14 Giugno 2024 10:00 tempo osservato: Coperto Coperto 21 64 1017 vento: Nord O/SO 14.8
14 Giugno 2024 09:30 tempo osservato: Sereno Sereno 20 68 1017 vento: Nord N 3.7
14 Giugno 2024 09:00 tempo osservato: Sereno Sereno 18 67 1017 vento: Nord N 3.7
14 Giugno 2024 08:30 tempo osservato: Sereno Sereno 17 67 1017 vento: Nord N 5.5
14 Giugno 2024 08:00 tempo osservato: Sereno Sereno 16 72 1017 vento: Nord N 5.5
14 Giugno 2024 07:30 tempo osservato: Sereno Sereno 15 76 1017 vento: Nord N 1.8
14 Giugno 2024 07:00 tempo osservato: Sereno Sereno 14 76 1017 vento: Nord N 5.5
14 Giugno 2024 06:30 tempo osservato: Sereno Sereno 14 76 1017 vento: Nord N/NE 7.4
14 Giugno 2024 06:00 tempo osservato: Sereno Sereno 13 81 1017 vento: Nord N 5.5
14 Giugno 2024 05:30 tempo osservato: Sereno Sereno 13 76 1016 vento: Nord N 0
14 Giugno 2024 05:00 tempo osservato: Sereno Sereno 13 76 1016 vento: Nord N 3.7
14 Giugno 2024 04:30 tempo osservato: Sereno Sereno 13 81 1017 vento: Nord N 5.5
14 Giugno 2024 04:00 tempo osservato: Sereno Sereno 13 81 1017 vento: Nord N 5.5
14 Giugno 2024 03:30 tempo osservato: Sereno Sereno 13 81 1017 vento: Nord N 1.8
14 Giugno 2024 03:00 tempo osservato: Sereno Sereno 14 76 1017 vento: Nord N 3.7
14 Giugno 2024 02:30 tempo osservato: Sereno Sereno 15 72 1017 vento: Nord N 1.8
14 Giugno 2024 02:00 tempo osservato: Sereno Sereno 15 76 1017 vento: Nord N 3.7
14 Giugno 2024 01:30 tempo osservato: Sereno Sereno 15 82 1017 vento: Nord N 3.7
14 Giugno 2024 01:00 tempo osservato: Sereno Sereno 15 82 1017 vento: Nord N 3.7
14 Giugno 2024 00:30 tempo osservato: Sereno Sereno 16 77 1017 vento: Nord N 5.5
14 Giugno 2024 00:00 tempo osservato: Sereno Sereno 16 77 1017 vento: Nord N 3.7
13 Giugno 2024 23:30 tempo osservato: Sereno Sereno 17 72 1017 vento: Nord N 3.7
13 Giugno 2024 23:00 tempo osservato: Sereno Sereno 17 77 1017 vento: Nord N 5.5
13 Giugno 2024 22:30 tempo osservato: Sereno Sereno 18 77 1016 vento: Nord N 1.8
13 Giugno 2024 22:00 tempo osservato: Sereno Sereno 19 72 1016 vento: Nord N 3.7
13 Giugno 2024 21:30 tempo osservato: Sereno Sereno 20 64 1015 vento: Nord N 3.7
13 Giugno 2024 21:00 tempo osservato: Sereno Sereno 21 60 1015 vento: Nord N 0
13 Giugno 2024 20:30 tempo osservato: Sereno Sereno 21 68 1015 vento: Nord O 7.4
13 Giugno 2024 20:00 tempo osservato: Sereno Sereno 23 60 1015 vento: Nord N 3.7
13 Giugno 2024 19:30 tempo osservato: Sereno Sereno 22 64 1015 vento: Nord S/SE 11.1
13 Giugno 2024 19:00 tempo osservato: Sereno Sereno 23 53 1015 vento: Nord SE 7.4
13 Giugno 2024 18:30 tempo osservato: Sereno Sereno 23 53 1015 vento: Nord SE 9.3
13 Giugno 2024 18:00 tempo osservato: Sereno Sereno 23 53 1015 vento: Nord SE 11.1